createdAt,value
2023-01-08T00:01:13.051Z,88.63
2023-01-08T00:03:49.347Z,78.75
2023-01-08T00:06:19.372Z,80.28
2023-01-08T00:08:46.459Z,71.95
2023-01-08T00:11:14.878Z,73.07
2023-01-08T00:13:42.200Z,68.32
2023-01-08T00:16:15.298Z,72.22
2023-01-08T00:18:43.219Z,74.05
2023-01-08T00:21:11.512Z,68.13
2023-01-08T00:23:38.891Z,66.30
2023-01-08T00:26:09.049Z,66.63
2023-01-08T00:28:37.115Z,58.85
2023-01-08T00:31:05.821Z,61.13
2023-01-08T00:33:33.264Z,65.40
2023-01-08T00:36:06.306Z,69.43
2023-01-08T00:38:33.360Z,63.13
2023-01-08T00:41:00.764Z,59.97
2023-01-08T00:43:27.785Z,60.95
2023-01-08T00:45:55.529Z,66.43
2023-01-08T00:48:23.149Z,69.57
2023-01-08T00:50:51.589Z,69.80
2023-01-08T00:53:22.521Z,62.08
2023-01-08T00:55:49.926Z,64.60
2023-01-08T00:58:16.952Z,75.30
2023-01-08T01:00:44.334Z,59.67
2023-01-08T01:03:11.358Z,66.68
2023-01-08T01:05:38.682Z,70.55
2023-01-08T01:08:05.720Z,64.50
2023-01-08T01:10:33.152Z,65.45
2023-01-08T01:13:00.151Z,69.93
2023-01-08T01:15:27.486Z,67.68
2023-01-08T01:17:54.510Z,71.82
2023-01-08T01:20:23.725Z,66.05
2023-01-08T01:22:51.049Z,67.78
2023-01-08T01:25:18.505Z,68.82
2023-01-08T01:27:45.504Z,68.72
2023-01-08T01:30:13.072Z,67.25
2023-01-08T01:32:40.135Z,66.85
2023-01-08T01:35:08.213Z,64.65
2023-01-08T01:37:35.231Z,62.13
2023-01-08T01:40:02.948Z,61.67
2023-01-08T01:42:41.841Z,67.15
2023-01-08T01:45:24.207Z,66.47
2023-01-08T01:48:06.699Z,63.10
2023-01-08T01:50:41.257Z,67.28
2023-01-08T01:53:15.138Z,66.22
2023-01-08T01:55:43.808Z,68.55
2023-01-08T01:58:13.270Z,67.13
2023-01-08T02:00:41.383Z,65.13
2023-01-08T02:03:11.185Z,60.28
2023-01-08T02:06:17.203Z,68.28
2023-01-08T02:08:50.161Z,67.53
2023-01-08T02:11:21.206Z,64.80
2023-01-08T02:13:58.353Z,67.00
2023-01-08T02:16:53.215Z,70.13
2023-01-08T02:19:56.924Z,69.90
2023-01-08T02:22:32.284Z,70.47
2023-01-08T02:25:07.929Z,64.40
2023-01-08T02:27:37.725Z,61.83
2023-01-08T02:30:06.314Z,67.65
2023-01-08T02:32:37.048Z,68.65
2023-01-08T02:35:05.937Z,70.07
2023-01-08T02:37:33.719Z,65.38
2023-01-08T02:40:09.946Z,65.18
2023-01-08T02:43:00.390Z,62.08
2023-01-08T02:45:39.325Z,65.85
2023-01-08T02:48:19.263Z,71.07
2023-01-08T02:51:10.627Z,59.60
2023-01-08T02:53:42.188Z,64.25
2023-01-08T02:56:13.531Z,58.33
2023-01-08T02:58:43.011Z,61.15
2023-01-08T03:01:12.878Z,64.35
2023-01-08T03:03:43.487Z,65.72
2023-01-08T03:06:16.097Z,60.97
2023-01-08T03:08:47.095Z,56.60
2023-01-08T03:11:17.381Z,59.33
2023-01-08T03:13:58.327Z,53.22
2023-01-08T03:16:32.120Z,54.78
2023-01-08T03:19:09.773Z,60.15
2023-01-08T03:21:37.853Z,55.20
2023-01-08T03:24:06.629Z,54.28
2023-01-08T03:26:37.619Z,50.15
2023-01-08T03:29:06.639Z,52.63
2023-01-08T03:31:35.941Z,48.33
2023-01-08T03:34:05.154Z,54.33
2023-01-08T03:36:34.892Z,51.10
2023-01-08T03:39:19.359Z,50.00
2023-01-08T03:41:48.390Z,54.80
2023-01-08T03:44:16.470Z,46.10
2023-01-08T03:46:48.921Z,46.67
2023-01-08T03:49:16.912Z,46.95
2023-01-08T03:51:46.849Z,48.67
2023-01-08T03:54:17.780Z,50.28
2023-01-08T03:56:45.029Z,47.05
2023-01-08T03:59:13.574Z,47.13
2023-01-08T04:01:41.050Z,43.17
2023-01-08T04:04:10.780Z,49.13
2023-01-08T04:06:37.979Z,48.67
2023-01-08T04:09:05.332Z,44.38
2023-01-08T04:11:32.530Z,40.28
2023-01-08T04:13:59.891Z,48.97
2023-01-08T04:16:27.070Z,40.67
2023-01-08T04:18:54.397Z,40.45
2023-01-08T04:21:21.503Z,40.53
2023-01-08T04:23:48.835Z,41.92
2023-01-08T04:26:15.957Z,43.10
2023-01-08T04:28:43.223Z,38.22
2023-01-08T04:31:10.759Z,39.05
2023-01-08T04:33:38.278Z,39.70
2023-01-08T04:36:05.977Z,40.28
2023-01-08T04:38:33.337Z,36.15
2023-01-08T04:41:01.730Z,38.25
2023-01-08T04:43:30.743Z,39.58
2023-01-08T04:46:02.643Z,40.78
2023-01-08T04:48:30.836Z,39.03
2023-01-08T04:51:00.152Z,35.63
2023-01-08T04:53:33.647Z,36.40
2023-01-08T04:56:06.277Z,35.38
2023-01-08T04:58:34.923Z,36.15
2023-01-08T05:01:02.049Z,41.03
2023-01-08T05:03:29.456Z,37.42
2023-01-08T05:05:56.535Z,38.55
2023-01-08T05:08:23.871Z,37.05
2023-01-08T05:10:50.881Z,38.08
2023-01-08T05:13:18.167Z,37.45
2023-01-08T05:15:45.222Z,37.70
2023-01-08T05:18:12.573Z,33.22
2023-01-08T05:20:39.616Z,38.08
2023-01-08T05:23:06.984Z,35.95
2023-01-08T05:25:35.112Z,42.40
2023-01-08T05:28:02.473Z,38.90
2023-01-08T05:30:29.668Z,37.78
2023-01-08T05:32:57.037Z,33.55
2023-01-08T05:35:24.024Z,40.70
2023-01-08T05:37:51.443Z,43.50
2023-01-08T05:40:18.641Z,37.85
2023-01-08T05:42:46.013Z,38.10
2023-01-08T05:45:13.106Z,37.17
2023-01-08T05:47:40.519Z,31.42
2023-01-08T05:50:07.991Z,34.63
2023-01-08T05:52:35.633Z,36.85
2023-01-08T05:55:02.776Z,39.20
2023-01-08T05:57:30.060Z,37.28
2023-01-08T05:59:57.274Z,33.45
2023-01-08T06:02:24.626Z,34.33
2023-01-08T06:04:51.738Z,31.08
2023-01-08T06:07:19.138Z,30.80
2023-01-08T06:09:46.190Z,33.55
2023-01-08T06:12:13.623Z,29.30
2023-01-08T06:14:40.679Z,29.13
2023-01-08T06:17:08.093Z,32.95
2023-01-08T06:19:35.106Z,30.30
2023-01-08T06:22:02.611Z,26.95
2023-01-08T06:24:29.637Z,31.38
2023-01-08T06:26:56.975Z,26.90
2023-01-08T06:29:24.874Z,32.08
2023-01-08T06:31:52.224Z,29.77
2023-01-08T06:34:19.463Z,27.63
2023-01-08T06:36:48.742Z,29.52
2023-01-08T06:39:15.747Z,24.75
2023-01-08T06:41:43.733Z,28.30
2023-01-08T06:44:10.902Z,27.83
2023-01-08T06:46:40.328Z,30.45
2023-01-08T06:49:08.063Z,30.80
2023-01-08T06:51:36.048Z,35.53
2023-01-08T06:54:03.460Z,31.30
2023-01-08T06:56:30.867Z,29.98
2023-01-08T06:58:58.000Z,25.23
2023-01-08T07:01:25.327Z,29.42
2023-01-08T07:03:52.564Z,31.00
2023-01-08T07:06:22.639Z,28.42
2023-01-08T07:08:49.936Z,30.05
2023-01-08T07:11:17.513Z,30.80
2023-01-08T07:13:44.548Z,28.35
2023-01-08T07:16:14.377Z,27.58
2023-01-08T07:18:42.810Z,28.75
2023-01-08T07:21:10.309Z,32.83
2023-01-08T07:23:38.405Z,36.42
2023-01-08T07:26:07.784Z,32.08
2023-01-08T07:28:35.223Z,30.15
2023-01-08T07:31:04.667Z,34.88
2023-01-08T07:33:31.939Z,31.15
2023-01-08T07:35:59.398Z,30.38
2023-01-08T07:38:26.807Z,32.17
2023-01-08T07:40:54.290Z,27.77
2023-01-08T07:43:21.397Z,34.22
2023-01-08T07:45:48.805Z,32.17
2023-01-08T07:48:16.519Z,27.60
2023-01-08T07:50:44.712Z,29.98
2023-01-08T07:53:13.738Z,32.40
2023-01-08T07:55:41.144Z,33.13
2023-01-08T07:58:12.404Z,28.70
2023-01-08T08:00:40.055Z,25.20
2023-01-08T08:03:11.398Z,30.02
2023-01-08T08:05:39.558Z,29.63
2023-01-08T08:08:11.698Z,31.33
2023-01-08T08:10:40.427Z,28.95
2023-01-08T08:13:07.857Z,29.88
2023-01-08T08:15:36.241Z,27.20
2023-01-08T08:18:04.075Z,28.17
2023-01-08T08:20:31.804Z,29.48
2023-01-08T08:23:10.771Z,28.67
2023-01-08T08:25:38.158Z,30.42
2023-01-08T08:28:05.721Z,26.63
2023-01-08T08:30:34.461Z,26.65
2023-01-08T08:33:04.017Z,32.83
2023-01-08T08:35:32.676Z,31.33
2023-01-08T08:38:00.127Z,29.02
2023-01-08T08:40:28.866Z,24.88
2023-01-08T08:43:00.559Z,28.55
2023-01-08T08:45:28.638Z,30.73
2023-01-08T08:47:55.873Z,30.23
2023-01-08T08:50:23.358Z,27.20
2023-01-08T08:52:50.374Z,24.70
2023-01-08T08:55:17.860Z,21.45
2023-01-08T08:57:46.559Z,25.63
2023-01-08T09:00:15.421Z,25.38
2023-01-08T09:02:42.892Z,26.35
2023-01-08T09:05:11.478Z,24.38
2023-01-08T09:07:38.819Z,26.67
2023-01-08T09:10:06.862Z,22.92
2023-01-08T09:12:33.865Z,23.27
2023-01-08T09:15:01.201Z,20.75
2023-01-08T09:17:28.271Z,24.17
2023-01-08T09:19:55.580Z,20.98
2023-01-08T09:22:22.740Z,22.63
2023-01-08T09:24:50.156Z,19.98
2023-01-08T09:27:17.339Z,19.80
2023-01-08T09:29:44.682Z,17.98
2023-01-08T09:32:11.693Z,19.60
2023-01-08T09:34:39.183Z,18.83
2023-01-08T09:37:06.775Z,20.25
2023-01-08T09:39:36.029Z,21.55
2023-01-08T09:42:05.670Z,20.20
2023-01-08T09:44:43.124Z,21.15
2023-01-08T09:47:26.742Z,17.08
2023-01-08T09:49:58.446Z,19.13
2023-01-08T09:52:25.775Z,17.98
2023-01-08T09:54:53.293Z,20.75
2023-01-08T09:57:23.837Z,16.52
2023-01-08T09:59:51.375Z,20.95
2023-01-08T10:02:24.908Z,20.98
2023-01-08T10:05:00.762Z,25.30
2023-01-08T10:07:30.547Z,21.38
2023-01-08T10:09:57.936Z,20.27
2023-01-08T10:12:31.228Z,21.17
2023-01-08T10:15:12.155Z,19.67
2023-01-08T10:17:41.591Z,20.88
2023-01-08T10:20:14.360Z,19.50
2023-01-08T10:22:42.378Z,22.45
2023-01-08T10:25:16.651Z,18.77
2023-01-08T10:27:50.052Z,20.63
2023-01-08T10:30:23.175Z,21.55
2023-01-08T10:32:56.092Z,20.02
2023-01-08T10:35:39.660Z,17.23
2023-01-08T10:38:07.612Z,21.13
2023-01-08T10:40:42.154Z,19.08
2023-01-08T10:43:14.828Z,18.20
2023-01-08T10:45:44.082Z,16.20
2023-01-08T10:48:18.321Z,17.20
2023-01-08T10:50:45.659Z,18.20
2023-01-08T10:53:28.567Z,14.35
2023-01-08T10:56:04.006Z,15.77
2023-01-08T10:58:41.575Z,13.30
2023-01-08T11:01:19.505Z,14.13
2023-01-08T11:03:51.742Z,18.33
2023-01-08T11:06:34.509Z,15.25
2023-01-08T11:09:04.841Z,14.95
2023-01-08T11:11:37.071Z,14.13
2023-01-08T11:14:27.928Z,19.13
2023-01-08T11:16:56.627Z,14.95
2023-01-08T11:19:32.073Z,13.48
2023-01-08T11:22:01.871Z,17.85
2023-01-08T11:24:33.394Z,14.32
2023-01-08T11:27:12.601Z,13.23
2023-01-08T11:29:51.032Z,19.02
2023-01-08T11:32:27.172Z,17.02
2023-01-08T11:34:57.018Z,16.42
2023-01-08T11:37:33.630Z,18.05
2023-01-08T11:40:00.907Z,12.68
2023-01-08T11:42:42.533Z,14.63
2023-01-08T11:45:12.590Z,14.48
2023-01-08T11:47:48.701Z,12.55
2023-01-08T11:50:39.811Z,15.68
2023-01-08T11:53:13.035Z,18.63
2023-01-08T11:55:58.459Z,19.83
2023-01-08T11:58:51.284Z,16.35
2023-01-08T12:01:42.413Z,16.65
2023-01-08T12:04:34.103Z,14.63
2023-01-08T12:07:20.229Z,15.57
2023-01-08T12:09:56.899Z,15.93
2023-01-08T12:12:42.964Z,16.02
2023-01-08T12:15:16.510Z,17.98
2023-01-08T12:18:00.841Z,17.13
2023-01-08T12:20:48.189Z,15.77
2023-01-08T12:23:21.555Z,17.98
2023-01-08T12:26:10.665Z,16.25
2023-01-08T12:29:04.530Z,16.40
2023-01-08T12:31:57.655Z,16.08
2023-01-08T12:34:54.414Z,16.02
2023-01-08T12:37:25.126Z,17.83
2023-01-08T12:40:13.597Z,17.98
2023-01-08T12:42:47.261Z,16.17
2023-01-08T12:45:24.468Z,16.75
2023-01-08T12:47:59.010Z,14.73
2023-01-08T12:50:56.726Z,17.67
2023-01-08T12:56:18.324Z,15.32
2023-01-08T12:59:11.431Z,16.65
2023-01-08T13:01:49.564Z,17.77
2023-01-08T13:04:17.463Z,17.65
2023-01-08T13:07:16.462Z,19.02
2023-01-08T13:09:44.426Z,17.10
2023-01-08T13:12:15.936Z,18.08
2023-01-08T13:14:49.107Z,19.40
2023-01-08T13:17:22.165Z,20.75
2023-01-08T13:19:55.717Z,17.27
2023-01-08T13:22:27.347Z,16.67
2023-01-08T13:25:15.545Z,18.33
2023-01-08T13:27:44.145Z,19.25
2023-01-08T13:30:33.498Z,19.40
2023-01-08T13:33:01.466Z,23.30
2023-01-08T13:35:31.497Z,20.15
2023-01-08T13:38:10.719Z,19.35
2023-01-08T13:40:44.382Z,21.05
2023-01-08T13:43:25.007Z,21.75
2023-01-08T13:45:58.381Z,24.88
2023-01-08T13:48:28.712Z,26.48
2023-01-08T13:50:56.626Z,24.63
2023-01-08T13:53:24.462Z,23.08
2023-01-08T13:56:05.342Z,23.95
2023-01-08T13:58:51.399Z,26.70
2023-01-08T14:01:20.037Z,24.17
2023-01-08T14:03:48.626Z,21.67
2023-01-08T14:06:22.938Z,21.40
2023-01-08T14:09:01.745Z,21.50
2023-01-08T14:11:43.334Z,20.92
2023-01-08T14:14:15.311Z,21.92
2023-01-08T14:16:43.160Z,21.85
2023-01-08T14:19:16.350Z,25.60
2023-01-08T14:21:51.668Z,23.38
2023-01-08T14:24:20.296Z,22.27
2023-01-08T14:26:58.893Z,24.05
2023-01-08T14:29:29.941Z,22.38
2023-01-08T14:32:00.317Z,19.17
2023-01-08T14:34:30.406Z,20.65
2023-01-08T14:36:58.323Z,20.70
2023-01-08T14:39:31.276Z,21.83
2023-01-08T14:42:25.169Z,22.60
2023-01-08T14:45:15.459Z,24.23
2023-01-08T14:47:49.338Z,21.85
2023-01-08T14:50:20.255Z,25.38
2023-01-08T14:52:48.445Z,24.25
2023-01-08T14:55:19.350Z,26.92
2023-01-08T14:57:48.336Z,28.65
2023-01-08T15:00:22.015Z,24.75
2023-01-08T15:02:49.953Z,26.50
2023-01-08T15:05:21.458Z,27.27
2023-01-08T15:08:04.327Z,27.05
2023-01-08T15:10:41.030Z,25.52
2023-01-08T15:16:05.819Z,24.42
2023-01-08T15:18:41.324Z,26.27
2023-01-08T15:21:09.308Z,29.83
2023-01-08T15:23:42.057Z,29.10
2023-01-08T15:26:11.977Z,27.52
2023-01-08T15:28:45.996Z,21.40
2023-01-08T15:31:25.572Z,26.30
2023-01-08T15:33:52.840Z,25.95
2023-01-08T15:36:21.378Z,32.67
2023-01-08T15:38:49.951Z,27.45
2023-01-08T15:41:40.699Z,30.13
2023-01-08T15:44:10.474Z,26.27
2023-01-08T15:46:37.599Z,31.02
2023-01-08T15:49:05.526Z,30.75
2023-01-08T15:51:34.645Z,24.85
2023-01-08T15:54:02.783Z,27.55
2023-01-08T15:56:30.055Z,25.40
2023-01-08T15:58:57.444Z,26.40
2023-01-08T16:01:27.649Z,29.10
2023-01-08T16:03:55.136Z,29.15
2023-01-08T16:06:22.188Z,26.20
2023-01-08T16:08:49.814Z,28.65
2023-01-08T16:11:17.933Z,27.75
2023-01-08T16:13:46.049Z,27.50
2023-01-08T16:16:15.510Z,29.80
2023-01-08T16:18:43.399Z,31.70
2023-01-08T16:21:11.409Z,30.90
2023-01-08T16:23:40.236Z,28.67
2023-01-08T16:26:09.088Z,28.92
2023-01-08T16:28:36.557Z,31.40
2023-01-08T16:31:04.264Z,31.00
2023-01-08T16:33:31.701Z,26.58
2023-01-08T16:36:01.266Z,31.20
2023-01-08T16:38:29.463Z,28.13
2023-01-08T16:40:57.205Z,27.13
2023-01-08T16:43:26.182Z,29.58
2023-01-08T16:45:54.501Z,29.45
2023-01-08T16:48:23.384Z,29.15
2023-01-08T16:50:50.556Z,29.42
2023-01-08T16:53:17.944Z,29.13
2023-01-08T16:55:45.016Z,26.00
2023-01-08T16:58:12.472Z,27.20
2023-01-08T17:00:40.464Z,33.40
2023-01-08T17:03:07.830Z,31.17
2023-01-08T17:05:36.893Z,31.60
2023-01-08T17:08:04.911Z,32.95
2023-01-08T17:10:33.881Z,31.33
2023-01-08T17:13:01.253Z,32.78
2023-01-08T17:15:28.393Z,29.23
2023-01-08T17:17:55.878Z,30.23
2023-01-08T17:20:23.933Z,29.17
2023-01-08T17:22:51.710Z,29.80
2023-01-08T17:25:18.814Z,31.92
2023-01-08T17:27:46.242Z,51.45
2023-01-08T17:30:15.002Z,35.30
2023-01-08T17:32:42.593Z,36.78
2023-01-08T17:35:09.865Z,31.95
2023-01-08T17:37:37.232Z,35.75
2023-01-08T17:40:05.618Z,32.92
2023-01-08T17:42:33.014Z,31.73
2023-01-08T17:45:03.022Z,33.65
2023-01-08T17:47:31.370Z,33.53
2023-01-08T17:49:58.376Z,33.70
2023-01-08T17:52:26.177Z,29.20
2023-01-08T17:54:53.595Z,32.85
2023-01-08T17:57:21.921Z,34.13
2023-01-08T17:59:49.263Z,31.42
2023-01-08T18:02:17.793Z,31.35
2023-01-08T18:04:45.721Z,28.02
2023-01-08T18:07:15.439Z,32.47
2023-01-08T18:09:42.637Z,41.42
2023-01-08T18:12:10.248Z,33.97
2023-01-08T18:14:39.080Z,37.78
2023-01-08T18:17:06.472Z,29.80
2023-01-08T18:19:33.874Z,33.40
2023-01-08T18:22:01.262Z,33.13
2023-01-08T18:24:28.471Z,37.63
2023-01-08T18:26:55.811Z,35.33
2023-01-08T18:29:22.860Z,36.05
2023-01-08T18:31:50.290Z,36.63
2023-01-08T18:34:17.396Z,45.10
2023-01-08T18:36:47.639Z,39.40
2023-01-08T18:39:14.761Z,38.75
2023-01-08T18:42:00.694Z,35.47
2023-01-08T18:44:28.043Z,32.42
2023-01-08T18:46:55.474Z,34.92
2023-01-08T18:49:23.583Z,35.17
2023-01-08T18:51:50.976Z,40.80
2023-01-08T18:54:18.082Z,39.97
2023-01-08T18:56:46.549Z,42.75
2023-01-08T18:59:13.717Z,36.13
2023-01-08T19:01:41.617Z,32.55
2023-01-08T19:04:15.651Z,35.47
2023-01-08T19:06:43.141Z,42.72
2023-01-08T19:09:10.418Z,39.90
2023-01-08T19:11:37.780Z,35.88
2023-01-08T19:14:05.145Z,36.30
2023-01-08T19:16:32.530Z,42.03
2023-01-08T19:18:59.833Z,37.03
2023-01-08T19:21:29.419Z,38.20
2023-01-08T19:23:56.613Z,40.58
2023-01-08T19:26:24.250Z,35.60
2023-01-08T19:28:51.302Z,33.30
2023-01-08T19:31:19.009Z,34.25
2023-01-08T19:33:46.803Z,34.83
2023-01-08T19:36:16.504Z,39.40
2023-01-08T19:38:44.492Z,37.28
2023-01-08T19:41:31.292Z,35.53
2023-01-08T19:43:59.259Z,38.20
2023-01-08T19:46:27.456Z,33.47
2023-01-08T19:49:01.463Z,34.55
2023-01-08T19:51:32.926Z,36.80
2023-01-08T19:54:01.019Z,37.42
2023-01-08T19:56:29.527Z,39.40
2023-01-08T19:58:57.439Z,41.95
2023-01-08T20:01:26.923Z,39.42
2023-01-08T20:03:55.107Z,38.58
2023-01-08T20:06:24.886Z,35.47
2023-01-08T20:08:55.957Z,38.47
2023-01-08T20:11:23.815Z,41.72
2023-01-08T20:13:51.736Z,39.50
2023-01-08T20:16:21.287Z,39.40
2023-01-08T20:18:48.882Z,39.00
2023-01-08T20:21:21.675Z,36.50
2023-01-08T20:23:53.396Z,38.53
2023-01-08T20:26:20.943Z,39.60
2023-01-08T20:28:49.282Z,39.20
2023-01-08T20:31:19.036Z,39.70
2023-01-08T20:33:46.954Z,40.13
2023-01-08T20:36:17.564Z,44.40
2023-01-08T20:38:45.460Z,40.00
2023-01-08T20:41:13.123Z,41.35
2023-01-08T20:43:41.038Z,39.80
2023-01-08T20:46:14.725Z,43.65
2023-01-08T20:48:47.863Z,44.28
2023-01-08T20:51:16.235Z,44.45
2023-01-08T20:53:43.509Z,44.53
2023-01-08T20:56:13.970Z,36.63
2023-01-08T20:58:44.378Z,42.20
2023-01-08T21:01:14.998Z,44.53
2023-01-08T21:03:43.482Z,46.33
2023-01-08T21:06:13.757Z,42.40
2023-01-08T21:08:42.115Z,42.60
2023-01-08T21:11:11.023Z,41.47
2023-01-08T21:13:39.049Z,43.35
2023-01-08T21:16:11.655Z,41.08
2023-01-08T21:18:43.885Z,42.85
2023-01-08T21:21:12.282Z,45.83
2023-01-08T21:23:39.267Z,39.30
2023-01-08T21:26:09.925Z,43.35
2023-01-08T21:28:38.312Z,44.97
2023-01-08T21:31:12.946Z,48.50
2023-01-08T21:33:40.637Z,42.33
2023-01-08T21:36:12.123Z,44.83
2023-01-08T21:38:39.655Z,43.60
2023-01-08T21:41:32.927Z,45.17
2023-01-08T21:44:19.392Z,43.05
2023-01-08T21:46:47.027Z,43.25
2023-01-08T21:49:14.508Z,42.80
2023-01-08T21:52:00.291Z,47.58
2023-01-08T21:54:27.357Z,42.28
2023-01-08T21:56:54.748Z,44.38
2023-01-08T21:59:21.769Z,44.67
2023-01-08T22:01:49.303Z,49.25
2023-01-08T22:04:16.620Z,45.35
2023-01-08T22:06:43.961Z,44.22
2023-01-08T22:09:11.112Z,46.63
2023-01-08T22:11:38.429Z,45.65
2023-01-08T22:14:05.540Z,43.03
2023-01-08T22:16:33.071Z,48.03
2023-01-08T22:19:00.249Z,45.85
2023-01-08T22:21:27.627Z,44.47
2023-01-08T22:23:56.489Z,49.00
2023-01-08T22:26:24.464Z,49.70
2023-01-08T22:28:51.606Z,50.05
2023-01-08T22:31:19.282Z,47.33
2023-01-08T22:33:46.448Z,45.88
2023-01-08T22:36:14.872Z,40.47
2023-01-08T22:38:41.990Z,41.17
2023-01-08T22:41:17.778Z,45.90
2023-01-08T22:43:45.009Z,46.13
2023-01-08T22:46:15.183Z,44.67
2023-01-08T22:48:43.852Z,47.33
2023-01-08T22:51:11.978Z,44.55
2023-01-08T22:53:39.221Z,48.83
2023-01-08T22:56:12.174Z,45.67
2023-01-08T22:58:41.571Z,44.15
2023-01-08T23:01:18.381Z,44.22
2023-01-08T23:03:49.108Z,47.33
2023-01-08T23:06:18.746Z,46.13
2023-01-08T23:08:46.690Z,39.75
2023-01-08T23:11:16.795Z,48.25
2023-01-08T23:13:44.492Z,41.50
2023-01-08T23:16:14.721Z,46.75
2023-01-08T23:18:42.595Z,43.00
2023-01-08T23:21:13.065Z,47.72
2023-01-08T23:23:40.474Z,42.25
2023-01-08T23:26:13.971Z,49.40
2023-01-08T23:28:41.020Z,44.53
2023-01-08T23:31:09.982Z,42.10
2023-01-08T23:33:37.135Z,46.90
2023-01-08T23:36:05.462Z,47.67
2023-01-08T23:38:32.805Z,46.22
2023-01-08T23:41:00.717Z,46.75
2023-01-08T23:43:27.754Z,51.80
2023-01-08T23:45:55.776Z,47.88
2023-01-08T23:48:22.856Z,45.13
2023-01-08T23:50:50.414Z,43.55
2023-01-08T23:53:17.539Z,48.42
2023-01-08T23:55:44.832Z,48.60
2023-01-08T23:58:11.954Z,51.28
